Weather

BOSCOMBE DOWN (EGDM)

METAR

EGDM 230150Z AUTO 32006KT 1900 HZ NCD 10/08 Q1030

TAF

TAF EGDM 130455Z 1306/1324 17015KT 9999 -RA BKN015 TEMPO 1306/1312 17018G28KT 6000 -RADZ BKN010 PROB30 TEMPO 1306/1315 3000 RADZ BKN006 BECMG 1312/1315 BKN008

BRISTOL AIRPORT (EGGD)

METAR

EGGD 230150Z AUTO 05006KT 9999 NCD 12/08 Q1030

TAF

TAF EGGD 221703Z 2218/2318 28008KT CAVOK= TAF EGLL 221701Z 2218/2324 33008KT CAVOK PROB40 TEMPO 2220/2224 06010KT PROB30 TEMPO 2303/2307 8000

BRIZE NORTON (EGVN)

METAR

EGVN 230150Z 28003KT CAVOK 11/05 Q1030 BLU NOSIG

TAF

TAF EGVN 230116Z 2303/2403 32005KT 9999 FEW040

OXFORD (EGTK)

METAR

EGTK 222120Z 29005KT CAVOK 14/10 Q1029

Pressure charts

Click to see pressure charts
(redidrection to MetOffice website)